sensor_id;sensor_type;location;lat;lon;timestamp;P1;durP1;ratioP1;P2;durP2;ratioP2
13079;SDS011;6606;49.154;9.280;2023-02-15T00:02:01;25.47;;;17.63;;
13079;SDS011;6606;49.154;9.280;2023-02-15T00:04:44;21.70;;;15.57;;
13079;SDS011;6606;49.154;9.280;2023-02-15T00:07:28;22.43;;;16.40;;
13079;SDS011;6606;49.154;9.280;2023-02-15T00:10:10;24.57;;;18.17;;
13079;SDS011;6606;49.154;9.280;2023-02-15T00:12:52;24.53;;;16.83;;
13079;SDS011;6606;49.154;9.280;2023-02-15T00:15:34;23.97;;;16.83;;
13079;SDS011;6606;49.154;9.280;2023-02-15T00:18:15;23.13;;;16.40;;
13079;SDS011;6606;49.154;9.280;2023-02-15T00:21:02;22.53;;;16.47;;
13079;SDS011;6606;49.154;9.280;2023-02-15T00:23:45;25.50;;;17.87;;
13079;SDS011;6606;49.154;9.280;2023-02-15T00:26:27;25.70;;;17.47;;
13079;SDS011;6606;49.154;9.280;2023-02-15T00:29:09;22.47;;;16.77;;
13079;SDS011;6606;49.154;9.280;2023-02-15T00:31:52;29.23;;;19.20;;
13079;SDS011;6606;49.154;9.280;2023-02-15T00:34:34;28.70;;;19.10;;
13079;SDS011;6606;49.154;9.280;2023-02-15T00:37:17;27.23;;;16.70;;
13079;SDS011;6606;49.154;9.280;2023-02-15T00:40:01;28.10;;;19.57;;
13079;SDS011;6606;49.154;9.280;2023-02-15T00:42:44;24.33;;;16.97;;
13079;SDS011;6606;49.154;9.280;2023-02-15T00:45:25;24.67;;;17.63;;
13079;SDS011;6606;49.154;9.280;2023-02-15T00:48:07;23.27;;;16.60;;
13079;SDS011;6606;49.154;9.280;2023-02-15T00:50:50;24.77;;;17.70;;
13079;SDS011;6606;49.154;9.280;2023-02-15T00:53:34;23.40;;;17.07;;
13079;SDS011;6606;49.154;9.280;2023-02-15T00:56:16;25.53;;;18.13;;
13079;SDS011;6606;49.154;9.280;2023-02-15T00:58:58;28.63;;;18.60;;
13079;SDS011;6606;49.154;9.280;2023-02-15T01:01:40;25.73;;;17.47;;
13079;SDS011;6606;49.154;9.280;2023-02-15T01:04:21;26.50;;;18.53;;
13079;SDS011;6606;49.154;9.280;2023-02-15T01:07:03;23.03;;;16.67;;
13079;SDS011;6606;49.154;9.280;2023-02-15T01:09:48;25.40;;;17.40;;
13079;SDS011;6606;49.154;9.280;2023-02-15T01:12:30;26.13;;;18.03;;
13079;SDS011;6606;49.154;9.280;2023-02-15T01:15:11;27.90;;;18.53;;
13079;SDS011;6606;49.154;9.280;2023-02-15T01:17:53;31.37;;;19.90;;
13079;SDS011;6606;49.154;9.280;2023-02-15T01:20:36;25.70;;;18.30;;
13079;SDS011;6606;49.154;9.280;2023-02-15T01:23:21;22.90;;;16.47;;
13079;SDS011;6606;49.154;9.280;2023-02-15T01:26:04;26.13;;;17.57;;
13079;SDS011;6606;49.154;9.280;2023-02-15T01:28:46;26.73;;;18.50;;
13079;SDS011;6606;49.154;9.280;2023-02-15T01:31:28;29.37;;;19.00;;
13079;SDS011;6606;49.154;9.280;2023-02-15T01:34:09;25.20;;;17.47;;
13079;SDS011;6606;49.154;9.280;2023-02-15T01:36:52;23.67;;;17.67;;
13079;SDS011;6606;49.154;9.280;2023-02-15T01:39:34;24.83;;;17.67;;
13079;SDS011;6606;49.154;9.280;2023-02-15T01:42:21;27.30;;;19.23;;
13079;SDS011;6606;49.154;9.280;2023-02-15T01:45:05;21.50;;;16.10;;
13079;SDS011;6606;49.154;9.280;2023-02-15T01:48:02;28.13;;;18.53;;
13079;SDS011;6606;49.154;9.280;2023-02-15T01:50:47;27.53;;;18.57;;
13079;SDS011;6606;49.154;9.280;2023-02-15T01:53:35;28.57;;;19.17;;
13079;SDS011;6606;49.154;9.280;2023-02-15T01:56:21;29.10;;;19.33;;
13079;SDS011;6606;49.154;9.280;2023-02-15T01:59:08;28.50;;;18.87;;
13079;SDS011;6606;49.154;9.280;2023-02-15T02:01:53;31.23;;;20.33;;
13079;SDS011;6606;49.154;9.280;2023-02-15T02:04:39;26.40;;;18.73;;
13079;SDS011;6606;49.154;9.280;2023-02-15T02:07:27;27.07;;;18.47;;
13079;SDS011;6606;49.154;9.280;2023-02-15T02:10:15;30.67;;;20.10;;
13079;SDS011;6606;49.154;9.280;2023-02-15T02:12:59;29.13;;;19.37;;
13079;SDS011;6606;49.154;9.280;2023-02-15T02:15:47;30.27;;;20.60;;
13079;SDS011;6606;49.154;9.280;2023-02-15T02:18:40;27.47;;;19.37;;
13079;SDS011;6606;49.154;9.280;2023-02-15T02:21:42;27.00;;;19.23;;
13079;SDS011;6606;49.154;9.280;2023-02-15T02:25:03;30.83;;;19.70;;
13079;SDS011;6606;49.154;9.280;2023-02-15T02:28:08;28.63;;;18.83;;
13079;SDS011;6606;49.154;9.280;2023-02-15T02:31:11;28.50;;;19.50;;
13079;SDS011;6606;49.154;9.280;2023-02-15T02:34:08;30.60;;;19.60;;
13079;SDS011;6606;49.154;9.280;2023-02-15T02:36:58;27.60;;;18.27;;
13079;SDS011;6606;49.154;9.280;2023-02-15T02:39:54;29.73;;;19.33;;
13079;SDS011;6606;49.154;9.280;2023-02-15T02:42:44;27.63;;;19.20;;
13079;SDS011;6606;49.154;9.280;2023-02-15T02:45:34;32.27;;;20.60;;
13079;SDS011;6606;49.154;9.280;2023-02-15T02:48:25;29.77;;;19.80;;
13079;SDS011;6606;49.154;9.280;2023-02-15T02:51:12;28.13;;;19.33;;
13079;SDS011;6606;49.154;9.280;2023-02-15T02:53:56;28.67;;;19.80;;
13079;SDS011;6606;49.154;9.280;2023-02-15T02:56:42;26.70;;;18.27;;
13079;SDS011;6606;49.154;9.280;2023-02-15T02:59:28;27.77;;;18.83;;
13079;SDS011;6606;49.154;9.280;2023-02-15T03:02:14;28.73;;;19.40;;
13079;SDS011;6606;49.154;9.280;2023-02-15T03:05:03;28.50;;;18.70;;
13079;SDS011;6606;49.154;9.280;2023-02-15T03:07:50;32.10;;;21.17;;
13079;SDS011;6606;49.154;9.280;2023-02-15T03:10:34;28.67;;;19.30;;
13079;SDS011;6606;49.154;9.280;2023-02-15T03:13:18;29.70;;;19.10;;
13079;SDS011;6606;49.154;9.280;2023-02-15T03:16:01;30.70;;;20.23;;
13079;SDS011;6606;49.154;9.280;2023-02-15T03:19:05;29.20;;;19.47;;
13079;SDS011;6606;49.154;9.280;2023-02-15T03:21:51;30.53;;;19.40;;
13079;SDS011;6606;49.154;9.280;2023-02-15T03:24:46;28.70;;;19.43;;
13079;SDS011;6606;49.154;9.280;2023-02-15T03:27:36;28.80;;;19.23;;
13079;SDS011;6606;49.154;9.280;2023-02-15T03:30:22;29.50;;;18.93;;
13079;SDS011;6606;49.154;9.280;2023-02-15T03:33:08;28.17;;;19.20;;
13079;SDS011;6606;49.154;9.280;2023-02-15T03:35:52;30.50;;;19.47;;
13079;SDS011;6606;49.154;9.280;2023-02-15T03:38:43;31.33;;;20.23;;
13079;SDS011;6606;49.154;9.280;2023-02-15T03:41:32;35.80;;;21.80;;
13079;SDS011;6606;49.154;9.280;2023-02-15T03:44:19;27.77;;;18.97;;
13079;SDS011;6606;49.154;9.280;2023-02-15T03:47:08;31.73;;;20.80;;
13079;SDS011;6606;49.154;9.280;2023-02-15T03:49:55;28.80;;;18.50;;
13079;SDS011;6606;49.154;9.280;2023-02-15T03:52:42;25.40;;;17.03;;
13079;SDS011;6606;49.154;9.280;2023-02-15T03:55:24;28.40;;;18.80;;
13079;SDS011;6606;49.154;9.280;2023-02-15T03:58:07;25.87;;;18.33;;
13079;SDS011;6606;49.154;9.280;2023-02-15T04:01:09;30.37;;;19.83;;
13079;SDS011;6606;49.154;9.280;2023-02-15T04:04:17;34.33;;;21.27;;
13079;SDS011;6606;49.154;9.280;2023-02-15T04:07:02;27.00;;;18.30;;
13079;SDS011;6606;49.154;9.280;2023-02-15T04:09:45;29.67;;;19.83;;
13079;SDS011;6606;49.154;9.280;2023-02-15T04:12:44;27.43;;;18.67;;
13079;SDS011;6606;49.154;9.280;2023-02-15T04:15:27;29.63;;;19.33;;
13079;SDS011;6606;49.154;9.280;2023-02-15T04:18:26;29.93;;;19.43;;
13079;SDS011;6606;49.154;9.280;2023-02-15T04:21:26;31.23;;;20.40;;
13079;SDS011;6606;49.154;9.280;2023-02-15T04:24:28;29.77;;;19.30;;
13079;SDS011;6606;49.154;9.280;2023-02-15T04:27:27;32.47;;;18.97;;
13079;SDS011;6606;49.154;9.280;2023-02-15T04:30:09;31.17;;;20.70;;
13079;SDS011;6606;49.154;9.280;2023-02-15T04:32:54;29.00;;;19.43;;
13079;SDS011;6606;49.154;9.280;2023-02-15T04:35:37;31.53;;;20.67;;
13079;SDS011;6606;49.154;9.280;2023-02-15T04:38:18;30.67;;;20.43;;
13079;SDS011;6606;49.154;9.280;2023-02-15T04:41:00;32.93;;;20.60;;
13079;SDS011;6606;49.154;9.280;2023-02-15T04:43:42;26.57;;;19.13;;
13079;SDS011;6606;49.154;9.280;2023-02-15T04:46:23;29.23;;;19.73;;
13079;SDS011;6606;49.154;9.280;2023-02-15T04:49:07;31.07;;;19.63;;
13079;SDS011;6606;49.154;9.280;2023-02-15T04:51:49;29.67;;;19.30;;
13079;SDS011;6606;49.154;9.280;2023-02-15T04:54:31;29.57;;;19.13;;
13079;SDS011;6606;49.154;9.280;2023-02-15T04:57:13;30.33;;;20.87;;
13079;SDS011;6606;49.154;9.280;2023-02-15T04:59:54;28.97;;;20.00;;
13079;SDS011;6606;49.154;9.280;2023-02-15T05:02:37;35.13;;;20.00;;
13079;SDS011;6606;49.154;9.280;2023-02-15T05:05:20;32.23;;;20.43;;
13079;SDS011;6606;49.154;9.280;2023-02-15T05:08:01;31.87;;;21.30;;
13079;SDS011;6606;49.154;9.280;2023-02-15T05:10:43;30.53;;;20.20;;
13079;SDS011;6606;49.154;9.280;2023-02-15T05:13:25;34.83;;;22.07;;
13079;SDS011;6606;49.154;9.280;2023-02-15T05:16:07;33.10;;;20.93;;
13079;SDS011;6606;49.154;9.280;2023-02-15T05:18:49;30.07;;;20.07;;
13079;SDS011;6606;49.154;9.280;2023-02-15T05:21:32;32.93;;;20.37;;
13079;SDS011;6606;49.154;9.280;2023-02-15T05:24:14;35.23;;;21.47;;
13079;SDS011;6606;49.154;9.280;2023-02-15T05:27:14;29.80;;;19.70;;
13079;SDS011;6606;49.154;9.280;2023-02-15T05:30:13;35.97;;;21.60;;
13079;SDS011;6606;49.154;9.280;2023-02-15T05:32:55;35.10;;;21.97;;
13079;SDS011;6606;49.154;9.280;2023-02-15T05:35:36;29.63;;;19.53;;
13079;SDS011;6606;49.154;9.280;2023-02-15T05:38:19;39.77;;;23.47;;
13079;SDS011;6606;49.154;9.280;2023-02-15T05:41:01;38.63;;;22.87;;
13079;SDS011;6606;49.154;9.280;2023-02-15T05:43:43;30.67;;;20.20;;
13079;SDS011;6606;49.154;9.280;2023-02-15T05:46:24;28.70;;;19.50;;
13079;SDS011;6606;49.154;9.280;2023-02-15T05:49:06;41.30;;;22.73;;
13079;SDS011;6606;49.154;9.280;2023-02-15T05:51:48;33.87;;;20.90;;
13079;SDS011;6606;49.154;9.280;2023-02-15T05:54:31;28.40;;;18.67;;
13079;SDS011;6606;49.154;9.280;2023-02-15T05:57:13;34.23;;;20.43;;
13079;SDS011;6606;49.154;9.280;2023-02-15T05:59:54;31.47;;;19.97;;
13079;SDS011;6606;49.154;9.280;2023-02-15T06:02:36;33.87;;;20.47;;
13079;SDS011;6606;49.154;9.280;2023-02-15T06:05:18;31.13;;;19.47;;
13079;SDS011;6606;49.154;9.280;2023-02-15T06:08:00;31.87;;;19.87;;
13079;SDS011;6606;49.154;9.280;2023-02-15T06:10:43;31.13;;;19.83;;
13079;SDS011;6606;49.154;9.280;2023-02-15T06:13:29;32.67;;;20.70;;
13079;SDS011;6606;49.154;9.280;2023-02-15T06:16:11;30.17;;;19.10;;
13079;SDS011;6606;49.154;9.280;2023-02-15T06:18:53;29.77;;;17.80;;
13079;SDS011;6606;49.154;9.280;2023-02-15T06:21:34;32.83;;;20.23;;
13079;SDS011;6606;49.154;9.280;2023-02-15T06:24:16;31.30;;;20.70;;
13079;SDS011;6606;49.154;9.280;2023-02-15T06:26:59;30.20;;;19.30;;
13079;SDS011;6606;49.154;9.280;2023-02-15T06:29:41;30.13;;;19.83;;
13079;SDS011;6606;49.154;9.280;2023-02-15T06:32:23;30.33;;;18.87;;
13079;SDS011;6606;49.154;9.280;2023-02-15T06:35:05;32.73;;;20.83;;
13079;SDS011;6606;49.154;9.280;2023-02-15T06:37:47;29.90;;;19.40;;
13079;SDS011;6606;49.154;9.280;2023-02-15T06:40:29;28.63;;;18.77;;
13079;SDS011;6606;49.154;9.280;2023-02-15T06:43:12;29.80;;;19.97;;
13079;SDS011;6606;49.154;9.280;2023-02-15T06:45:54;27.63;;;18.10;;
13079;SDS011;6606;49.154;9.280;2023-02-15T06:48:36;24.23;;;16.60;;
13079;SDS011;6606;49.154;9.280;2023-02-15T06:51:18;27.53;;;18.30;;
13079;SDS011;6606;49.154;9.280;2023-02-15T06:53:59;24.80;;;17.53;;
13079;SDS011;6606;49.154;9.280;2023-02-15T06:56:41;30.27;;;19.80;;
13079;SDS011;6606;49.154;9.280;2023-02-15T06:59:25;27.60;;;18.77;;
13079;SDS011;6606;49.154;9.280;2023-02-15T07:02:07;28.53;;;19.07;;
13079;SDS011;6606;49.154;9.280;2023-02-15T07:04:49;27.80;;;18.23;;
13079;SDS011;6606;49.154;9.280;2023-02-15T07:07:31;28.40;;;18.80;;
13079;SDS011;6606;49.154;9.280;2023-02-15T07:10:12;29.90;;;19.63;;
13079;SDS011;6606;49.154;9.280;2023-02-15T07:12:54;26.67;;;18.33;;
13079;SDS011;6606;49.154;9.280;2023-02-15T07:15:37;27.53;;;19.73;;
13079;SDS011;6606;49.154;9.280;2023-02-15T07:18:18;31.27;;;20.37;;
13079;SDS011;6606;49.154;9.280;2023-02-15T07:21:00;29.20;;;19.83;;
13079;SDS011;6606;49.154;9.280;2023-02-15T07:23:42;26.87;;;17.97;;
13079;SDS011;6606;49.154;9.280;2023-02-15T07:26:23;32.80;;;21.33;;
13079;SDS011;6606;49.154;9.280;2023-02-15T07:29:05;29.57;;;19.67;;
13079;SDS011;6606;49.154;9.280;2023-02-15T07:31:48;27.13;;;18.80;;
13079;SDS011;6606;49.154;9.280;2023-02-15T07:34:30;27.50;;;18.33;;
13079;SDS011;6606;49.154;9.280;2023-02-15T07:37:11;25.60;;;18.27;;
13079;SDS011;6606;49.154;9.280;2023-02-15T07:39:53;30.17;;;19.40;;
13079;SDS011;6606;49.154;9.280;2023-02-15T07:42:35;29.03;;;18.97;;
13079;SDS011;6606;49.154;9.280;2023-02-15T07:45:17;30.00;;;21.23;;
13079;SDS011;6606;49.154;9.280;2023-02-15T07:48:01;29.60;;;20.23;;
13079;SDS011;6606;49.154;9.280;2023-02-15T07:50:43;26.93;;;18.63;;
13079;SDS011;6606;49.154;9.280;2023-02-15T07:53:24;27.80;;;19.57;;
13079;SDS011;6606;49.154;9.280;2023-02-15T07:56:07;25.63;;;17.80;;
13079;SDS011;6606;49.154;9.280;2023-02-15T07:58:51;27.93;;;16.97;;
13079;SDS011;6606;49.154;9.280;2023-02-15T08:01:33;27.87;;;17.10;;
13079;SDS011;6606;49.154;9.280;2023-02-15T08:04:17;27.20;;;18.13;;
13079;SDS011;6606;49.154;9.280;2023-02-15T08:06:59;30.07;;;19.53;;
13079;SDS011;6606;49.154;9.280;2023-02-15T08:09:41;28.07;;;18.87;;
13079;SDS011;6606;49.154;9.280;2023-02-15T08:12:22;28.03;;;19.37;;
13079;SDS011;6606;49.154;9.280;2023-02-15T08:15:07;25.00;;;18.57;;
13079;SDS011;6606;49.154;9.280;2023-02-15T08:17:49;26.93;;;18.60;;
13079;SDS011;6606;49.154;9.280;2023-02-15T08:20:32;24.57;;;17.47;;
13079;SDS011;6606;49.154;9.280;2023-02-15T08:23:13;29.27;;;18.27;;
13079;SDS011;6606;49.154;9.280;2023-02-15T08:25:55;28.20;;;19.43;;
13079;SDS011;6606;49.154;9.280;2023-02-15T08:28:41;31.97;;;20.53;;
13079;SDS011;6606;49.154;9.280;2023-02-15T08:31:23;29.00;;;20.17;;
13079;SDS011;6606;49.154;9.280;2023-02-15T08:34:04;28.77;;;19.50;;
13079;SDS011;6606;49.154;9.280;2023-02-15T08:36:48;32.97;;;20.27;;
13079;SDS011;6606;49.154;9.280;2023-02-15T08:39:29;33.70;;;20.13;;
13079;SDS011;6606;49.154;9.280;2023-02-15T08:42:11;29.83;;;20.50;;
13079;SDS011;6606;49.154;9.280;2023-02-15T08:44:53;27.63;;;18.97;;
13079;SDS011;6606;49.154;9.280;2023-02-15T08:47:35;27.63;;;19.07;;
13079;SDS011;6606;49.154;9.280;2023-02-15T08:50:18;27.23;;;19.57;;
13079;SDS011;6606;49.154;9.280;2023-02-15T08:53:01;29.20;;;19.87;;
13079;SDS011;6606;49.154;9.280;2023-02-15T08:55:44;25.67;;;18.23;;
13079;SDS011;6606;49.154;9.280;2023-02-15T08:58:25;26.20;;;17.37;;
13079;SDS011;6606;49.154;9.280;2023-02-15T09:01:10;26.63;;;20.13;;
13079;SDS011;6606;49.154;9.280;2023-02-15T09:03:58;32.80;;;24.57;;
13079;SDS011;6606;49.154;9.280;2023-02-15T09:06:42;30.90;;;22.33;;
13079;SDS011;6606;49.154;9.280;2023-02-15T09:09:26;30.03;;;21.63;;
13079;SDS011;6606;49.154;9.280;2023-02-15T09:12:08;27.40;;;18.90;;
13079;SDS011;6606;49.154;9.280;2023-02-15T09:14:50;26.63;;;18.47;;
13079;SDS011;6606;49.154;9.280;2023-02-15T09:17:31;28.53;;;19.73;;
13079;SDS011;6606;49.154;9.280;2023-02-15T09:20:14;26.07;;;19.53;;
13079;SDS011;6606;49.154;9.280;2023-02-15T09:22:56;29.27;;;17.97;;
13079;SDS011;6606;49.154;9.280;2023-02-15T09:25:39;28.33;;;19.60;;
13079;SDS011;6606;49.154;9.280;2023-02-15T09:28:22;28.13;;;20.90;;
13079;SDS011;6606;49.154;9.280;2023-02-15T09:31:08;27.40;;;21.00;;
13079;SDS011;6606;49.154;9.280;2023-02-15T09:33:51;27.23;;;19.90;;
13079;SDS011;6606;49.154;9.280;2023-02-15T09:36:33;30.23;;;19.70;;
13079;SDS011;6606;49.154;9.280;2023-02-15T09:39:17;27.57;;;20.03;;
13079;SDS011;6606;49.154;9.280;2023-02-15T09:42:18;24.93;;;18.87;;
13079;SDS011;6606;49.154;9.280;2023-02-15T09:45:20;28.33;;;18.27;;
13079;SDS011;6606;49.154;9.280;2023-02-15T09:48:12;32.07;;;24.20;;
13079;SDS011;6606;49.154;9.280;2023-02-15T09:51:20;31.50;;;21.40;;
13079;SDS011;6606;49.154;9.280;2023-02-15T09:54:33;30.93;;;21.97;;
13079;SDS011;6606;49.154;9.280;2023-02-15T09:57:27;30.73;;;21.27;;
13079;SDS011;6606;49.154;9.280;2023-02-15T10:00:16;30.57;;;19.93;;
13079;SDS011;6606;49.154;9.280;2023-02-15T10:03:18;32.47;;;23.60;;
13079;SDS011;6606;49.154;9.280;2023-02-15T10:09:31;32.33;;;21.53;;
13079;SDS011;6606;49.154;9.280;2023-02-15T10:15:42;27.07;;;20.03;;
13079;SDS011;6606;49.154;9.280;2023-02-15T10:18:38;29.23;;;20.00;;
13079;SDS011;6606;49.154;9.280;2023-02-15T10:21:36;27.47;;;19.13;;
13079;SDS011;6606;49.154;9.280;2023-02-15T10:24:32;28.00;;;19.77;;
13079;SDS011;6606;49.154;9.280;2023-02-15T10:27:32;27.60;;;19.67;;
13079;SDS011;6606;49.154;9.280;2023-02-15T10:30:22;26.40;;;19.63;;
13079;SDS011;6606;49.154;9.280;2023-02-15T10:33:14;25.17;;;19.17;;
13079;SDS011;6606;49.154;9.280;2023-02-15T10:36:10;32.43;;;21.00;;
13079;SDS011;6606;49.154;9.280;2023-02-15T10:39:01;24.20;;;18.03;;
13079;SDS011;6606;49.154;9.280;2023-02-15T10:41:49;24.33;;;18.33;;
13079;SDS011;6606;49.154;9.280;2023-02-15T10:44:43;25.47;;;18.60;;
13079;SDS011;6606;49.154;9.280;2023-02-15T10:47:41;23.50;;;18.33;;
13079;SDS011;6606;49.154;9.280;2023-02-15T10:50:46;25.80;;;19.23;;
13079;SDS011;6606;49.154;9.280;2023-02-15T10:53:39;25.47;;;20.27;;
13079;SDS011;6606;49.154;9.280;2023-02-15T10:56:35;30.77;;;22.27;;
13079;SDS011;6606;49.154;9.280;2023-02-15T10:59:30;28.73;;;20.73;;
13079;SDS011;6606;49.154;9.280;2023-02-15T11:02:24;23.40;;;18.50;;
13079;SDS011;6606;49.154;9.280;2023-02-15T11:05:22;26.57;;;19.37;;
13079;SDS011;6606;49.154;9.280;2023-02-15T11:08:13;27.43;;;20.73;;
13079;SDS011;6606;49.154;9.280;2023-02-15T11:10:56;28.60;;;20.43;;
13079;SDS011;6606;49.154;9.280;2023-02-15T11:13:43;25.17;;;19.17;;
13079;SDS011;6606;49.154;9.280;2023-02-15T11:16:29;26.87;;;19.97;;
13079;SDS011;6606;49.154;9.280;2023-02-15T11:19:14;25.83;;;20.77;;
13079;SDS011;6606;49.154;9.280;2023-02-15T11:22:05;24.03;;;19.23;;
13079;SDS011;6606;49.154;9.280;2023-02-15T11:24:48;23.60;;;18.57;;
13079;SDS011;6606;49.154;9.280;2023-02-15T11:27:31;29.03;;;20.67;;
13079;SDS011;6606;49.154;9.280;2023-02-15T11:30:20;21.67;;;17.57;;
13079;SDS011;6606;49.154;9.280;2023-02-15T11:33:03;23.10;;;18.20;;
13079;SDS011;6606;49.154;9.280;2023-02-15T11:35:48;24.47;;;19.63;;
13079;SDS011;6606;49.154;9.280;2023-02-15T11:38:34;25.43;;;18.47;;
13079;SDS011;6606;49.154;9.280;2023-02-15T11:41:19;23.57;;;18.20;;
13079;SDS011;6606;49.154;9.280;2023-02-15T11:44:06;25.50;;;19.80;;
13079;SDS011;6606;49.154;9.280;2023-02-15T11:47:01;24.07;;;17.83;;
13079;SDS011;6606;49.154;9.280;2023-02-15T11:49:46;23.20;;;18.60;;
13079;SDS011;6606;49.154;9.280;2023-02-15T11:52:28;22.87;;;17.67;;
13079;SDS011;6606;49.154;9.280;2023-02-15T11:55:13;24.60;;;19.73;;
13079;SDS011;6606;49.154;9.280;2023-02-15T11:58:01;30.37;;;20.33;;
13079;SDS011;6606;49.154;9.280;2023-02-15T12:00:50;27.63;;;20.87;;
13079;SDS011;6606;49.154;9.280;2023-02-15T12:03:39;25.70;;;19.73;;
13079;SDS011;6606;49.154;9.280;2023-02-15T12:06:27;29.50;;;21.27;;
13079;SDS011;6606;49.154;9.280;2023-02-15T12:09:13;25.43;;;20.13;;
13079;SDS011;6606;49.154;9.280;2023-02-15T12:12:21;24.60;;;19.83;;
13079;SDS011;6606;49.154;9.280;2023-02-15T12:15:05;27.00;;;20.43;;
13079;SDS011;6606;49.154;9.280;2023-02-15T12:17:49;26.37;;;19.63;;
13079;SDS011;6606;49.154;9.280;2023-02-15T12:20:34;25.93;;;19.97;;
13079;SDS011;6606;49.154;9.280;2023-02-15T12:23:18;22.27;;;18.13;;
13079;SDS011;6606;49.154;9.280;2023-02-15T12:26:00;25.60;;;19.50;;
13079;SDS011;6606;49.154;9.280;2023-02-15T12:28:49;24.73;;;18.80;;
13079;SDS011;6606;49.154;9.280;2023-02-15T12:31:33;24.60;;;19.43;;
13079;SDS011;6606;49.154;9.280;2023-02-15T12:34:21;24.53;;;20.37;;
13079;SDS011;6606;49.154;9.280;2023-02-15T12:37:08;24.87;;;20.33;;
13079;SDS011;6606;49.154;9.280;2023-02-15T12:39:56;26.13;;;19.30;;
13079;SDS011;6606;49.154;9.280;2023-02-15T12:42:43;24.17;;;20.23;;
13079;SDS011;6606;49.154;9.280;2023-02-15T12:45:28;25.50;;;19.40;;
13079;SDS011;6606;49.154;9.280;2023-02-15T12:48:14;26.03;;;19.00;;
13079;SDS011;6606;49.154;9.280;2023-02-15T12:51:06;24.27;;;19.13;;
13079;SDS011;6606;49.154;9.280;2023-02-15T12:53:50;25.17;;;19.43;;
13079;SDS011;6606;49.154;9.280;2023-02-15T12:56:31;24.77;;;19.50;;
13079;SDS011;6606;49.154;9.280;2023-02-15T12:59:14;23.67;;;19.43;;
13079;SDS011;6606;49.154;9.280;2023-02-15T13:01:57;23.90;;;19.37;;
13079;SDS011;6606;49.154;9.280;2023-02-15T13:04:46;23.67;;;19.40;;
13079;SDS011;6606;49.154;9.280;2023-02-15T13:07:31;24.53;;;19.60;;
13079;SDS011;6606;49.154;9.280;2023-02-15T13:10:20;27.87;;;20.13;;
13079;SDS011;6606;49.154;9.280;2023-02-15T13:13:09;23.57;;;18.47;;
13079;SDS011;6606;49.154;9.280;2023-02-15T13:15:53;23.33;;;19.87;;
13079;SDS011;6606;49.154;9.280;2023-02-15T13:18:40;25.37;;;19.83;;
13079;SDS011;6606;49.154;9.280;2023-02-15T13:21:26;25.10;;;19.87;;
13079;SDS011;6606;49.154;9.280;2023-02-15T13:24:15;23.03;;;18.87;;
13079;SDS011;6606;49.154;9.280;2023-02-15T13:27:02;22.20;;;18.73;;
13079;SDS011;6606;49.154;9.280;2023-02-15T13:29:45;27.00;;;19.97;;
13079;SDS011;6606;49.154;9.280;2023-02-15T13:32:33;25.70;;;19.70;;
13079;SDS011;6606;49.154;9.280;2023-02-15T13:35:18;24.17;;;19.53;;
13079;SDS011;6606;49.154;9.280;2023-02-15T13:41:20;23.83;;;18.10;;
13079;SDS011;6606;49.154;9.280;2023-02-15T13:44:09;25.77;;;19.57;;
13079;SDS011;6606;49.154;9.280;2023-02-15T13:47:09;24.67;;;19.13;;
13079;SDS011;6606;49.154;9.280;2023-02-15T13:50:07;22.57;;;17.90;;
13079;SDS011;6606;49.154;9.280;2023-02-15T13:53:02;22.47;;;18.90;;
13079;SDS011;6606;49.154;9.280;2023-02-15T13:56:01;23.33;;;18.47;;
13079;SDS011;6606;49.154;9.280;2023-02-15T13:58:58;23.30;;;18.20;;
13079;SDS011;6606;49.154;9.280;2023-02-15T14:01:51;24.47;;;19.47;;
13079;SDS011;6606;49.154;9.280;2023-02-15T14:04:49;24.67;;;19.43;;
13079;SDS011;6606;49.154;9.280;2023-02-15T14:07:42;24.40;;;19.13;;
13079;SDS011;6606;49.154;9.280;2023-02-15T14:10:46;22.43;;;18.83;;
13079;SDS011;6606;49.154;9.280;2023-02-15T14:13:47;24.50;;;18.80;;
13079;SDS011;6606;49.154;9.280;2023-02-15T14:16:41;24.63;;;18.50;;
13079;SDS011;6606;49.154;9.280;2023-02-15T14:19:34;22.17;;;17.93;;
13079;SDS011;6606;49.154;9.280;2023-02-15T14:22:21;25.70;;;19.10;;
13079;SDS011;6606;49.154;9.280;2023-02-15T14:25:15;20.80;;;17.87;;
13079;SDS011;6606;49.154;9.280;2023-02-15T14:28:07;21.83;;;17.47;;
13079;SDS011;6606;49.154;9.280;2023-02-15T14:30:52;22.80;;;18.23;;
13079;SDS011;6606;49.154;9.280;2023-02-15T14:33:35;21.33;;;17.17;;
13079;SDS011;6606;49.154;9.280;2023-02-15T14:36:20;23.87;;;18.50;;
13079;SDS011;6606;49.154;9.280;2023-02-15T14:39:05;20.43;;;18.07;;
13079;SDS011;6606;49.154;9.280;2023-02-15T14:42:54;22.67;;;19.13;;
13079;SDS011;6606;49.154;9.280;2023-02-15T14:45:46;28.10;;;18.50;;
13079;SDS011;6606;49.154;9.280;2023-02-15T14:48:31;20.37;;;16.40;;
13079;SDS011;6606;49.154;9.280;2023-02-15T14:54:58;21.40;;;16.60;;
13079;SDS011;6606;49.154;9.280;2023-02-15T14:57:40;20.27;;;16.70;;
13079;SDS011;6606;49.154;9.280;2023-02-15T15:00:38;19.00;;;16.23;;
13079;SDS011;6606;49.154;9.280;2023-02-15T15:03:23;18.33;;;16.30;;
13079;SDS011;6606;49.154;9.280;2023-02-15T15:06:06;22.30;;;17.60;;
13079;SDS011;6606;49.154;9.280;2023-02-15T15:08:48;22.27;;;17.27;;
13079;SDS011;6606;49.154;9.280;2023-02-15T15:14:39;21.93;;;16.20;;
13079;SDS011;6606;49.154;9.280;2023-02-15T15:20:41;19.60;;;16.23;;
13079;SDS011;6606;49.154;9.280;2023-02-15T15:23:39;20.10;;;17.43;;
13079;SDS011;6606;49.154;9.280;2023-02-15T15:26:25;19.63;;;16.33;;
13079;SDS011;6606;49.154;9.280;2023-02-15T15:29:13;20.33;;;15.83;;
13079;SDS011;6606;49.154;9.280;2023-02-15T15:32:20;22.27;;;17.10;;
13079;SDS011;6606;49.154;9.280;2023-02-15T15:35:13;21.87;;;17.43;;
13079;SDS011;6606;49.154;9.280;2023-02-15T15:38:13;21.07;;;16.33;;
13079;SDS011;6606;49.154;9.280;2023-02-15T15:41:16;20.10;;;14.80;;
13079;SDS011;6606;49.154;9.280;2023-02-15T15:47:33;18.03;;;15.07;;
13079;SDS011;6606;49.154;9.280;2023-02-15T15:50:29;19.87;;;14.97;;
13079;SDS011;6606;49.154;9.280;2023-02-15T15:53:16;21.47;;;15.03;;
13079;SDS011;6606;49.154;9.280;2023-02-15T15:56:06;21.13;;;16.50;;
13079;SDS011;6606;49.154;9.280;2023-02-15T15:58:53;22.70;;;16.97;;
13079;SDS011;6606;49.154;9.280;2023-02-15T16:01:38;19.00;;;16.23;;
13079;SDS011;6606;49.154;9.280;2023-02-15T16:04:24;21.37;;;15.97;;
13079;SDS011;6606;49.154;9.280;2023-02-15T16:07:21;19.70;;;16.10;;
13079;SDS011;6606;49.154;9.280;2023-02-15T16:10:07;22.27;;;15.50;;
13079;SDS011;6606;49.154;9.280;2023-02-15T16:13:01;19.43;;;14.90;;
13079;SDS011;6606;49.154;9.280;2023-02-15T16:15:44;20.50;;;15.77;;
13079;SDS011;6606;49.154;9.280;2023-02-15T16:18:29;21.87;;;17.77;;
13079;SDS011;6606;49.154;9.280;2023-02-15T16:21:14;21.33;;;17.30;;
13079;SDS011;6606;49.154;9.280;2023-02-15T16:24:07;21.07;;;16.57;;
13079;SDS011;6606;49.154;9.280;2023-02-15T16:30:17;22.27;;;16.03;;
13079;SDS011;6606;49.154;9.280;2023-02-15T16:33:05;24.30;;;17.83;;
13079;SDS011;6606;49.154;9.280;2023-02-15T16:35:53;25.47;;;17.40;;
13079;SDS011;6606;49.154;9.280;2023-02-15T16:41:51;33.10;;;18.60;;
13079;SDS011;6606;49.154;9.280;2023-02-15T16:44:37;29.47;;;17.50;;
13079;SDS011;6606;49.154;9.280;2023-02-15T16:47:22;28.23;;;17.10;;
13079;SDS011;6606;49.154;9.280;2023-02-15T16:50:07;30.53;;;19.17;;
13079;SDS011;6606;49.154;9.280;2023-02-15T16:52:59;26.40;;;17.47;;
13079;SDS011;6606;49.154;9.280;2023-02-15T16:55:41;25.97;;;18.07;;
13079;SDS011;6606;49.154;9.280;2023-02-15T16:58:26;28.47;;;18.50;;
13079;SDS011;6606;49.154;9.280;2023-02-15T17:01:12;27.77;;;18.60;;